Time;durP1;ratioP1;P1;durP2;ratioP2;P2;SDS_P1;SDS_P2;PMS_P1;PMS_P2;Temp;Humidity;BMP_temperature;BMP_pressure;BME280_temperature;BME280_humidity;BME280_pressure;Samples;Min_cycle;Max_cycle;Signal;HPM_P1;HPM_P2
2023/05/19 00:02:17;;;;;;;12.95;4.47;;;8.80;99.90;;;;;;4980650;28;20042;-85
2023/05/19 00:04:43;;;;;;;16.35;4.60;;;8.70;99.90;;;;;;4997295;28;20084;-85
2023/05/19 00:07:16;;;;;;;9.32;3.88;;;8.70;99.90;;;;;;4964816;28;20049;-85
2023/05/19 00:09:42;;;;;;;16.38;4.53;;;8.80;99.90;;;;;;4983041;28;20053;-85
2023/05/19 00:12:09;;;;;;;8.77;4.32;;;8.70;99.90;;;;;;5014630;28;20379;-84
2023/05/19 00:14:35;;;;;;;16.23;4.88;;;8.70;99.90;;;;;;4971420;28;20440;-85
2023/05/19 00:17:01;;;;;;;10.75;4.28;;;8.60;99.90;;;;;;5010804;28;20108;-84
2023/05/19 00:19:30;;;;;;;11.70;4.65;;;8.60;99.90;;;;;;4982898;28;20397;-84
2023/05/19 00:21:57;;;;;;;11.57;4.38;;;8.60;99.90;;;;;;4978038;28;20509;-84
2023/05/19 00:24:22;;;;;;;16.10;4.82;;;8.60;99.90;;;;;;4982405;28;20037;-86
2023/05/19 00:26:48;;;;;;;13.15;4.38;;;8.50;99.90;;;;;;4999039;28;20105;-86
2023/05/19 00:29:17;;;;;;;12.50;4.60;;;8.50;99.90;;;;;;4987109;28;20056;-85
2023/05/19 00:31:43;;;;;;;17.05;4.65;;;8.50;99.90;;;;;;5013727;28;20077;-85
2023/05/19 00:34:08;;;;;;;13.77;5.15;;;8.50;99.90;;;;;;5015036;28;20068;-85
2023/05/19 00:36:34;;;;;;;16.70;5.05;;;8.50;99.90;;;;;;5024455;28;20041;-84
2023/05/19 00:39:00;;;;;;;13.40;4.88;;;8.50;99.90;;;;;;4998012;28;20117;-84
2023/05/19 00:41:26;;;;;;;9.57;4.57;;;8.40;99.90;;;;;;5018759;28;20725;-85
2023/05/19 00:43:51;;;;;;;12.00;4.55;;;8.40;99.90;;;;;;5010440;28;20040;-84
2023/05/19 00:46:18;;;;;;;10.63;4.68;;;8.40;99.90;;;;;;5003626;28;20494;-84
2023/05/19 00:48:44;;;;;;;13.10;5.30;;;8.40;99.90;;;;;;5003409;28;20040;-85
2023/05/19 00:51:13;;;;;;;14.82;5.07;;;8.40;99.90;;;;;;5002763;28;20379;-84
2023/05/19 00:53:39;;;;;;;12.27;5.20;;;8.50;99.90;;;;;;5019200;28;20477;-85
2023/05/19 00:56:05;;;;;;;16.35;5.10;;;8.40;99.90;;;;;;5007518;28;20041;-84
2023/05/19 00:58:32;;;;;;;16.80;5.47;;;8.40;99.90;;;;;;5000085;28;20037;-84
2023/05/19 01:01:02;;;;;;;10.85;4.88;;;8.40;99.90;;;;;;5016521;28;20049;-84
2023/05/19 01:03:33;;;;;;;13.15;4.72;;;8.40;99.90;;;;;;5005007;28;20044;-86
2023/05/19 01:06:03;;;;;;;13.18;5.03;;;8.40;99.90;;;;;;5003451;28;20037;-85
2023/05/19 01:08:31;;;;;;;16.08;4.97;;;8.30;99.90;;;;;;5003310;28;20084;-85
2023/05/19 01:10:57;;;;;;;12.48;4.70;;;8.40;99.90;;;;;;5002605;28;20076;-85
2023/05/19 01:13:23;;;;;;;18.20;6.00;;;8.30;99.90;;;;;;5015897;28;20087;-85
2023/05/19 01:16:05;;;;;;;13.73;4.95;;;8.40;99.90;;;;;;4987121;28;20041;-85
2023/05/19 01:18:54;;;;;;;12.05;5.25;;;8.40;99.90;;;;;;5012683;28;20451;-85
2023/05/19 01:21:36;;;;;;;11.05;5.32;;;8.40;99.90;;;;;;4999915;28;20048;-86
2023/05/19 01:24:39;;;;;;;13.65;5.05;;;8.30;99.90;;;;;;5034929;28;20186;-84
2023/05/19 01:27:36;;;;;;;14.00;4.97;;;8.30;99.90;;;;;;5032552;28;20095;-85
2023/05/19 01:30:24;;;;;;;11.23;5.13;;;8.20;99.90;;;;;;5033811;28;20136;-85
2023/05/19 01:32:52;;;;;;;11.25;4.63;;;8.20;99.90;;;;;;5007280;28;20045;-84
2023/05/19 01:35:20;;;;;;;13.10;5.05;;;8.10;99.90;;;;;;5027516;28;20489;-85
2023/05/19 01:37:46;;;;;;;13.15;5.07;;;8.10;99.90;;;;;;5017602;28;20083;-85
2023/05/19 01:40:12;;;;;;;12.10;5.32;;;8.10;99.90;;;;;;5014533;28;20045;-84
2023/05/19 01:42:40;;;;;;;13.38;5.68;;;8.10;99.90;;;;;;5018476;28;20382;-85
2023/05/19 01:45:09;;;;;;;9.77;4.80;;;8.10;99.90;;;;;;5025662;28;20049;-84
2023/05/19 01:47:40;;;;;;;14.95;4.85;;;8.10;99.90;;;;;;5022940;28;20045;-84
2023/05/19 01:50:06;;;;;;;12.80;5.03;;;8.10;99.90;;;;;;5027337;28;20053;-85
2023/05/19 01:52:32;;;;;;;12.10;5.20;;;8.10;99.90;;;;;;5024451;28;20033;-84
2023/05/19 01:54:58;;;;;;;16.15;5.13;;;8.10;99.90;;;;;;5018576;28;21066;-84
2023/05/19 01:57:34;;;;;;;13.32;5.22;;;8.10;99.90;;;;;;5003273;28;20052;-84
2023/05/19 02:00:12;;;;;;;;;;;8.10;99.90;;;;;;5020568;28;20050;-85
2023/05/19 02:02:42;;;;;;;10.90;4.85;;;8.10;99.90;;;;;;5021223;28;19925;-85
2023/05/19 02:05:34;;;;;;;12.25;5.05;;;8.20;99.90;;;;;;5019166;28;20048;-85
2023/05/19 02:08:26;;;;;;;16.23;5.07;;;8.00;99.90;;;;;;5010765;28;20053;-85
2023/05/19 02:11:00;;;;;;;11.20;5.15;;;8.00;99.90;;;;;;5013575;28;20037;-84
2023/05/19 02:13:32;;;;;;;14.43;5.00;;;8.00;99.90;;;;;;5021362;28;20048;-84
2023/05/19 02:16:04;;;;;;;19.50;5.25;;;8.00;99.90;;;;;;5012576;28;20040;-85
2023/05/19 02:18:34;;;;;;;17.00;5.32;;;7.90;99.90;;;;;;5011077;28;20048;-85
2023/05/19 02:21:00;;;;;;;14.13;5.90;;;7.90;99.90;;;;;;5037111;28;20057;-85
2023/05/19 02:23:26;;;;;;;15.45;5.53;;;7.80;99.90;;;;;;5005679;28;20041;-84
2023/05/19 02:25:52;;;;;;;15.18;5.63;;;8.00;99.90;;;;;;4998938;28;20486;-86
2023/05/19 02:28:17;;;;;;;14.02;6.18;;;7.90;99.90;;;;;;5017091;28;20041;-85
2023/05/19 02:30:43;;;;;;;13.35;5.70;;;7.90;99.90;;;;;;5020964;28;20060;-86
2023/05/19 02:33:10;;;;;;;14.77;5.22;;;7.90;99.90;;;;;;5036057;28;20045;-84
2023/05/19 02:35:36;;;;;;;16.40;5.60;;;7.90;99.90;;;;;;5002772;28;20064;-84
2023/05/19 02:38:02;;;;;;;12.18;5.85;;;7.90;99.90;;;;;;5034192;28;20033;-85
2023/05/19 02:40:27;;;;;;;15.05;5.47;;;7.90;99.90;;;;;;5003143;28;20040;-84
2023/05/19 02:42:53;;;;;;;14.18;5.43;;;7.90;99.90;;;;;;5009319;28;20056;-84
2023/05/19 02:45:19;;;;;;;18.67;6.22;;;7.80;99.90;;;;;;4997732;28;20079;-85
2023/05/19 02:47:45;;;;;;;15.45;5.57;;;7.80;99.90;;;;;;4985594;28;20045;-85
2023/05/19 02:50:10;;;;;;;19.55;5.80;;;7.80;99.90;;;;;;5002094;28;20041;-85
2023/05/19 02:52:36;;;;;;;25.42;6.07;;;7.80;99.90;;;;;;5004975;28;20047;-85
2023/05/19 02:55:02;;;;;;;16.20;6.03;;;7.80;99.90;;;;;;4975058;28;20424;-85
2023/05/19 02:57:30;;;;;;;14.88;5.60;;;7.80;99.90;;;;;;5014055;28;20025;-85
2023/05/19 02:59:56;;;;;;;17.50;5.78;;;7.80;99.90;;;;;;5011181;28;20037;-84
2023/05/19 03:02:22;;;;;;;21.48;6.50;;;7.70;99.90;;;;;;5005486;28;20040;-85
2023/05/19 03:04:47;;;;;;;16.15;5.70;;;7.70;99.90;;;;;;5020467;28;20521;-85
2023/05/19 03:07:14;;;;;;;14.10;5.45;;;7.70;99.90;;;;;;5015178;28;20041;-84
2023/05/19 03:09:40;;;;;;;13.30;5.80;;;7.70;99.90;;;;;;4994727;28;20049;-85
2023/05/19 03:12:06;;;;;;;13.45;5.68;;;7.70;99.90;;;;;;5020915;28;20056;-84
2023/05/19 03:14:33;;;;;;;10.75;5.20;;;7.70;99.90;;;;;;5020186;28;20489;-86
2023/05/19 03:17:00;;;;;;;14.52;5.75;;;7.70;99.90;;;;;;5001173;28;20091;-84
2023/05/19 03:19:26;;;;;;;15.65;5.93;;;7.70;99.90;;;;;;5016308;28;20382;-86
2023/05/19 03:21:52;;;;;;;12.82;5.53;;;7.70;99.90;;;;;;4985040;28;20128;-85
2023/05/19 03:24:17;;;;;;;17.45;5.90;;;7.70;99.90;;;;;;5001124;28;20480;-85
2023/05/19 03:26:43;;;;;;;13.40;5.57;;;7.60;99.90;;;;;;4991854;28;20055;-85
2023/05/19 03:29:09;;;;;;;15.95;5.22;;;7.60;99.90;;;;;;4986419;28;20037;-85
2023/05/19 03:31:34;;;;;;;15.35;5.65;;;7.80;99.90;;;;;;4990341;28;20046;-85
2023/05/19 03:34:00;;;;;;;15.60;5.75;;;7.60;99.90;;;;;;5029527;28;20040;-86
2023/05/19 03:36:30;;;;;;;13.40;5.75;;;7.60;99.90;;;;;;4987813;28;20033;-85
2023/05/19 03:38:59;;;;;;;18.35;6.47;;;7.60;99.90;;;;;;4985237;28;20496;-85
2023/05/19 03:41:25;;;;;;;13.77;5.65;;;7.60;99.90;;;;;;5005238;28;20468;-85
2023/05/19 03:43:50;;;;;;;11.02;5.03;;;7.60;99.90;;;;;;5001622;28;20079;-85
2023/05/19 03:46:16;;;;;;;13.00;5.47;;;7.60;99.90;;;;;;4984130;28;20041;-85
2023/05/19 03:48:42;;;;;;;21.63;5.90;;;7.60;99.90;;;;;;4983828;28;20119;-85
2023/05/19 03:51:08;;;;;;;15.60;5.72;;;7.60;99.90;;;;;;4998084;28;20099;-84
2023/05/19 03:53:33;;;;;;;13.20;5.90;;;7.60;99.90;;;;;;4993050;28;20030;-85
2023/05/19 03:55:59;;;;;;;17.58;7.10;;;7.70;99.90;;;;;;5006785;28;20029;-85
2023/05/19 03:58:25;;;;;;;13.35;6.07;;;7.60;99.90;;;;;;5029526;28;20048;-85
2023/05/19 04:00:51;;;;;;;15.52;6.00;;;7.70;99.90;;;;;;5019353;28;20044;-85
2023/05/19 04:03:17;;;;;;;14.82;6.20;;;7.60;99.90;;;;;;4991165;28;20041;-85
2023/05/19 04:05:42;;;;;;;13.15;5.38;;;7.60;99.90;;;;;;5019010;28;20397;-85
2023/05/19 04:08:08;;;;;;;12.85;6.07;;;7.60;99.90;;;;;;4998841;28;20456;-85
2023/05/19 04:10:34;;;;;;;12.77;5.65;;;7.60;99.90;;;;;;5018135;28;20052;-85
2023/05/19 04:13:00;;;;;;;14.88;5.85;;;7.70;99.90;;;;;;5008376;28;20523;-84
2023/05/19 04:15:25;;;;;;;18.55;5.78;;;7.60;99.90;;;;;;4999450;28;20037;-85
2023/05/19 04:17:51;;;;;;;23.35;5.85;;;7.70;99.90;;;;;;5047341;28;20160;-85
2023/05/19 04:20:17;;;;;;;17.48;6.38;;;7.70;99.90;;;;;;5000368;28;20049;-85
2023/05/19 04:22:42;;;;;;;14.13;5.93;;;7.70;99.90;;;;;;5012695;28;20057;-84
2023/05/19 04:25:08;;;;;;;19.35;6.45;;;7.60;99.90;;;;;;5037115;28;20109;-87
2023/05/19 04:27:38;;;;;;;21.38;6.53;;;7.60;99.90;;;;;;4988386;28;20096;-85
2023/05/19 04:30:07;;;;;;;15.02;6.38;;;7.60;99.90;;;;;;4984050;28;20054;-85
2023/05/19 04:32:33;;;;;;;16.92;6.35;;;7.60;99.90;;;;;;5005591;28;20409;-85
2023/05/19 04:34:58;;;;;;;17.23;5.88;;;7.70;99.90;;;;;;5032316;28;20116;-85
2023/05/19 04:37:25;;;;;;;11.93;5.95;;;7.70;99.90;;;;;;4998476;28;20033;-85
2023/05/19 04:39:51;;;;;;;16.02;5.97;;;7.60;99.90;;;;;;4996300;28;20129;-85
2023/05/19 04:42:20;;;;;;;13.93;6.03;;;7.70;99.90;;;;;;4999832;28;20119;-85
2023/05/19 04:44:48;;;;;;;15.10;5.90;;;7.70;99.90;;;;;;5019394;28;20041;-85
2023/05/19 04:47:14;;;;;;;16.27;6.75;;;7.80;99.90;;;;;;5008985;28;20037;-86
2023/05/19 04:49:40;;;;;;;13.20;6.38;;;7.80;99.90;;;;;;4998764;28;20041;-85
2023/05/19 04:52:06;;;;;;;14.15;6.03;;;7.90;99.90;;;;;;4983309;28;20516;-86
2023/05/19 04:54:33;;;;;;;21.13;6.63;;;7.90;99.90;;;;;;5012394;28;20192;-85
2023/05/19 04:56:59;;;;;;;14.18;6.03;;;8.00;99.90;;;;;;5035524;28;20041;-84
2023/05/19 04:59:25;;;;;;;13.13;6.22;;;8.00;99.90;;;;;;4991773;28;20037;-84
2023/05/19 05:01:51;;;;;;;14.63;6.13;;;8.00;99.90;;;;;;5015490;28;20301;-85
2023/05/19 05:04:16;;;;;;;13.60;6.07;;;8.10;99.90;;;;;;4999294;28;20049;-85
2023/05/19 05:06:46;;;;;;;13.50;6.38;;;8.10;99.90;;;;;;4997704;28;20047;-83
2023/05/19 05:09:13;;;;;;;15.60;6.75;;;8.20;99.90;;;;;;5003021;28;20136;-86
2023/05/19 05:11:39;;;;;;;11.70;6.53;;;8.20;99.90;;;;;;5019339;28;20048;-86
2023/05/19 05:14:05;;;;;;;13.30;6.22;;;8.20;99.90;;;;;;5035973;28;20071;-85
2023/05/19 05:16:32;;;;;;;13.52;6.38;;;8.30;99.90;;;;;;4984167;28;20036;-85
2023/05/19 05:18:58;;;;;;;14.75;6.63;;;8.30;99.90;;;;;;5018480;28;20499;-85
2023/05/19 05:21:24;;;;;;;15.65;6.50;;;8.40;99.90;;;;;;4990575;28;20059;-86
2023/05/19 05:23:51;;;;;;;18.38;7.45;;;8.40;99.90;;;;;;5006795;28;20107;-85
2023/05/19 05:26:18;;;;;;;15.18;7.53;;;8.50;99.90;;;;;;5038516;28;20041;-85
2023/05/19 05:28:44;;;;;;;17.77;7.18;;;8.50;99.90;;;;;;5026590;28;20045;-85
2023/05/19 05:31:10;;;;;;;16.45;7.18;;;8.50;99.90;;;;;;5001929;28;20077;-84
2023/05/19 05:33:37;;;;;;;19.65;6.95;;;8.60;99.90;;;;;;5019185;28;20484;-85
2023/05/19 05:36:03;;;;;;;14.35;6.80;;;8.60;99.90;;;;;;5019423;28;20052;-86
2023/05/19 05:38:29;;;;;;;17.00;7.10;;;8.70;99.90;;;;;;5036080;28;20041;-85
2023/05/19 05:40:55;;;;;;;14.95;7.38;;;8.70;99.90;;;;;;4999103;28;20036;-85
2023/05/19 05:43:21;;;;;;;12.82;6.60;;;8.70;99.90;;;;;;4997284;28;20519;-85
2023/05/19 05:45:46;;;;;;;17.20;7.35;;;8.70;99.90;;;;;;4984649;28;20072;-84
2023/05/19 05:48:12;;;;;;;16.38;6.95;;;8.80;99.90;;;;;;5013839;28;20038;-84
2023/05/19 05:50:38;;;;;;;14.27;6.75;;;8.80;99.90;;;;;;5002152;28;20073;-84
2023/05/19 05:53:06;;;;;;;13.25;7.28;;;8.80;99.90;;;;;;5015715;28;20041;-83
2023/05/19 05:55:32;;;;;;;16.58;7.35;;;8.90;99.90;;;;;;5002546;28;20072;-82
2023/05/19 05:57:59;;;;;;;17.17;7.40;;;9.00;99.90;;;;;;5022941;28;20103;-86
2023/05/19 06:00:27;;;;;;;15.13;5.43;;;9.00;99.90;;;;;;5000983;28;20042;-84
2023/05/19 06:02:52;;;;;;;15.30;6.93;;;9.20;99.90;;;;;;5022554;28;20037;-83
2023/05/19 06:05:18;;;;;;;16.80;6.97;;;9.30;99.90;;;;;;5019675;28;20502;-83
2023/05/19 06:07:44;;;;;;;18.77;7.13;;;9.30;99.90;;;;;;5015449;28;20476;-83
2023/05/19 06:10:10;;;;;;;14.23;6.28;;;9.40;99.90;;;;;;5020886;28;20041;-83
2023/05/19 06:12:39;;;;;;;15.80;6.65;;;9.50;99.90;;;;;;4995985;28;20049;-84
2023/05/19 06:15:06;;;;;;;13.02;6.90;;;9.60;99.90;;;;;;4990215;28;20040;-85
2023/05/19 06:17:34;;;;;;;18.77;7.13;;;9.80;99.90;;;;;;5032701;28;20400;-83
2023/05/19 06:20:01;;;;;;;16.15;7.43;;;9.90;99.90;;;;;;5019868;28;20441;-85
2023/05/19 06:22:27;;;;;;;14.20;6.97;;;10.00;99.90;;;;;;5013793;28;20036;-84
2023/05/19 06:24:53;;;;;;;15.82;6.80;;;10.10;99.90;;;;;;4992648;28;20068;-86
2023/05/19 06:27:19;;;;;;;17.58;6.38;;;10.20;99.90;;;;;;5026956;28;20041;-88
2023/05/19 06:29:45;;;;;;;11.32;5.55;;;10.30;99.90;;;;;;5001857;28;20132;-87
2023/05/19 06:32:11;;;;;;;15.68;6.38;;;10.40;99.90;;;;;;5021492;28;20127;-89
2023/05/19 06:34:37;;;;;;;13.73;5.82;;;10.50;99.90;;;;;;5022157;28;20084;-87
2023/05/19 06:37:03;;;;;;;15.38;6.38;;;10.70;99.90;;;;;;5005628;28;20629;-88
2023/05/19 06:39:29;;;;;;;11.07;5.70;;;10.90;99.90;;;;;;5021422;28;20488;-89
2023/05/19 06:41:54;;;;;;;16.25;6.05;;;11.10;99.90;;;;;;5001309;28;20048;-86
2023/05/19 06:44:21;;;;;;;15.85;6.47;;;11.40;99.90;;;;;;4984440;28;20052;-87
2023/05/19 06:46:47;;;;;;;13.90;5.47;;;11.90;99.90;;;;;;5022338;28;20037;-88
2023/05/19 06:49:12;;;;;;;14.85;5.30;;;12.30;99.90;;;;;;5021129;28;20515;-87
2023/05/19 06:51:38;;;;;;;12.68;5.80;;;12.50;99.90;;;;;;5018772;28;20147;-86
2023/05/19 06:54:04;;;;;;;9.48;5.35;;;12.80;99.90;;;;;;5055322;28;20041;-86
2023/05/19 06:56:30;;;;;;;11.18;5.80;;;12.90;99.90;;;;;;5040471;28;20109;-87
2023/05/19 06:58:55;;;;;;;11.85;5.20;;;13.00;99.90;;;;;;5016260;28;20037;-87
2023/05/19 07:01:21;;;;;;;12.35;4.93;;;13.10;99.90;;;;;;4998851;28;20033;-87
2023/05/19 07:03:47;;;;;;;10.43;5.60;;;13.30;99.90;;;;;;5007293;28;20040;-88
2023/05/19 07:06:12;;;;;;;12.90;5.35;;;13.50;99.90;;;;;;5035259;28;20492;-85
2023/05/19 07:08:38;;;;;;;11.05;4.65;;;13.60;99.90;;;;;;5025988;28;20040;-86
2023/05/19 07:11:04;;;;;;;15.32;4.95;;;13.70;99.90;;;;;;4981855;28;20087;-85
2023/05/19 07:13:31;;;;;;;9.18;4.63;;;14.00;99.90;;;;;;4998753;28;20099;-86
2023/05/19 07:15:57;;;;;;;10.10;4.40;;;14.40;99.90;;;;;;5037008;28;20037;-85
2023/05/19 07:18:24;;;;;;;10.05;4.45;;;14.80;99.90;;;;;;5036069;28;20068;-85
2023/05/19 07:20:52;;;;;;;12.82;4.43;;;15.20;99.90;;;;;;4999920;28;20045;-85
2023/05/19 07:23:17;;;;;;;8.85;3.58;;;15.50;99.90;;;;;;5032660;28;20119;-86
2023/05/19 07:25:43;;;;;;;10.05;4.18;;;15.60;99.90;;;;;;4999908;28;20550;-84
2023/05/19 07:28:09;;;;;;;8.35;3.80;;;15.80;99.90;;;;;;5016884;28;20033;-85
2023/05/19 07:30:34;;;;;;;11.75;3.80;;;16.00;99.90;;;;;;4985879;28;20126;-85
2023/05/19 07:33:00;;;;;;;9.02;3.38;;;16.20;99.90;;;;;;5001731;28;20135;-84
2023/05/19 07:35:26;;;;;;;9.55;3.35;;;16.40;99.90;;;;;;5003343;28;20037;-85
2023/05/19 07:37:52;;;;;;;13.15;3.65;;;16.50;99.90;;;;;;5001036;28;20044;-86
2023/05/19 07:40:17;;;;;;;10.20;3.47;;;16.70;99.90;;;;;;5015592;28;20064;-83
2023/05/19 07:42:43;;;;;;;7.65;3.38;;;16.90;99.90;;;;;;5029769;28;20040;-84
2023/05/19 07:45:10;;;;;;;7.47;3.10;;;17.10;99.90;;;;;;4998838;28;20389;-86
2023/05/19 07:47:36;;;;;;;7.45;2.72;;;17.20;99.90;;;;;;5000241;28;20045;-86
2023/05/19 07:50:02;;;;;;;8.02;2.92;;;17.20;99.90;;;;;;5012690;28;20048;-87
2023/05/19 07:52:27;;;;;;;9.82;2.97;;;17.30;99.90;;;;;;5017620;28;20037;-85
2023/05/19 07:54:53;;;;;;;9.48;2.83;;;17.40;99.90;;;;;;5000389;28;20491;-86
2023/05/19 07:57:19;;;;;;;7.72;3.22;;;17.40;99.90;;;;;;5017834;28;20553;-86
2023/05/19 07:59:45;;;;;;;14.77;3.70;;;17.50;99.90;;;;;;5000231;28;20060;-87
2023/05/19 08:02:10;;;;;;;13.85;3.00;;;17.50;99.90;;;;;;5036670;28;20394;-86
2023/05/19 08:04:36;;;;;;;9.48;2.75;;;17.30;99.90;;;;;;5020799;28;20136;-86
2023/05/19 08:07:02;;;;;;;14.77;3.15;;;17.20;99.90;;;;;;5005078;28;20035;-90
2023/05/19 08:09:28;;;;;;;8.80;3.10;;;17.10;99.90;;;;;;5040234;28;20037;-84
2023/05/19 08:11:54;;;;;;;12.43;2.92;;;17.00;99.90;;;;;;5022619;28;20041;-85
2023/05/19 08:14:21;;;;;;;7.82;2.83;;;17.00;99.90;;;;;;5035039;28;20442;-87
2023/05/19 08:16:48;;;;;;;12.23;2.97;;;17.00;99.90;;;;;;5002963;28;20033;-86
2023/05/19 08:19:13;;;;;;;8.48;2.70;;;17.10;99.90;;;;;;5000372;28;20036;-88
2023/05/19 08:21:41;;;;;;;13.23;2.70;;;17.20;99.90;;;;;;4975686;28;20120;-89
2023/05/19 08:24:07;;;;;;;7.80;2.58;;;17.30;99.90;;;;;;4996969;28;20404;-89
2023/05/19 08:26:33;;;;;;;9.23;2.88;;;17.40;99.90;;;;;;5027599;28;20045;-87
2023/05/19 08:28:59;;;;;;;10.82;2.65;;;17.40;99.90;;;;;;5002653;28;20405;-89
2023/05/19 08:31:25;;;;;;;7.28;2.50;;;17.40;99.90;;;;;;5031071;28;20041;-88
2023/05/19 08:33:51;;;;;;;12.75;2.95;;;17.50;99.90;;;;;;5003412;28;20045;-84
2023/05/19 08:36:17;;;;;;;7.88;2.40;;;17.50;99.90;;;;;;5016059;28;20044;-84
2023/05/19 08:38:43;;;;;;;6.65;2.30;;;17.50;99.90;;;;;;5014512;28;20124;-86
2023/05/19 08:41:08;;;;;;;7.30;2.42;;;17.50;99.40;;;;;;5033922;28;20124;-86
2023/05/19 08:43:34;;;;;;;9.10;2.58;;;17.40;99.80;;;;;;4998866;28;20041;-85
2023/05/19 08:46:02;;;;;;;7.50;2.35;;;17.40;99.90;;;;;;4982585;28;20041;-86
2023/05/19 08:48:30;;;;;;;10.05;2.90;;;17.40;99.90;;;;;;5016557;28;20048;-86
2023/05/19 08:51:22;;;;;;;7.15;2.58;;;17.50;99.60;;;;;;5016948;28;20041;-87
2023/05/19 08:53:51;;;;;;;7.40;2.47;;;17.70;99.40;;;;;;5015927;28;20477;-85
2023/05/19 08:56:21;;;;;;;9.10;2.80;;;17.80;99.10;;;;;;5018049;28;20183;-84
2023/05/19 08:58:49;;;;;;;10.10;2.90;;;17.90;98.70;;;;;;5033087;28;20047;-85
2023/05/19 09:01:18;;;;;;;10.32;2.53;;;17.80;98.40;;;;;;5048555;28;20048;-87
2023/05/19 09:03:45;;;;;;;8.15;2.60;;;17.80;99.00;;;;;;4998306;28;20389;-86
2023/05/19 09:06:13;;;;;;;10.55;2.85;;;17.80;98.90;;;;;;4999291;28;20038;-87
2023/05/19 09:08:42;;;;;;;9.88;2.60;;;17.80;98.40;;;;;;5017632;28;20072;-87
2023/05/19 09:11:09;;;;;;;11.18;3.08;;;17.80;98.40;;;;;;4984999;28;20063;-86
2023/05/19 09:13:35;;;;;;;6.15;2.42;;;17.80;98.00;;;;;;5000800;28;20113;-85
2023/05/19 09:16:02;;;;;;;8.25;2.88;;;17.80;97.70;;;;;;5010017;28;20045;-86
2023/05/19 09:18:28;;;;;;;7.47;2.75;;;17.90;97.90;;;;;;5000766;28;20385;-85
2023/05/19 09:20:59;;;;;;;7.90;2.83;;;18.00;97.90;;;;;;5000821;28;20043;-90
2023/05/19 09:23:31;;;;;;;10.85;3.08;;;18.10;96.40;;;;;;5025256;28;20055;-84
2023/05/19 09:26:00;;;;;;;10.30;2.70;;;18.00;96.00;;;;;;5009173;28;20080;-86
2023/05/19 09:28:31;;;;;;;7.85;2.92;;;18.00;96.10;;;;;;5029038;28;20073;-85
2023/05/19 09:31:17;;;;;;;12.68;3.10;;;18.20;96.20;;;;;;5016507;28;20095;-88
2023/05/19 09:33:44;;;;;;;9.30;2.92;;;18.30;95.60;;;;;;5018462;28;20045;-88
2023/05/19 09:36:10;;;;;;;11.32;3.03;;;18.30;95.90;;;;;;5018211;28;20188;-88
2023/05/19 09:38:37;;;;;;;10.55;2.70;;;18.30;95.20;;;;;;4999153;28;20046;-88
2023/05/19 09:41:04;;;;;;;10.82;3.08;;;18.10;94.40;;;;;;5002465;28;20049;-80
2023/05/19 09:43:32;;;;;;;8.30;3.30;;;18.00;94.20;;;;;;4996734;28;20053;-81
2023/05/19 09:46:07;;;;;;;11.68;3.00;;;17.90;94.30;;;;;;4994370;28;20038;-84
2023/05/19 09:48:35;;;;;;;7.67;2.77;;;17.80;92.70;;;;;;5013174;28;20049;-84
2023/05/19 09:51:02;;;;;;;7.95;2.85;;;17.80;93.80;;;;;;5016660;28;20044;-85
2023/05/19 09:53:30;;;;;;;12.52;3.28;;;17.80;93.60;;;;;;5015325;28;20198;-84
2023/05/19 09:55:59;;;;;;;6.82;2.47;;;17.80;93.10;;;;;;5031494;28;20056;-85
2023/05/19 09:58:25;;;;;;;6.50;2.35;;;17.80;93.60;;;;;;5033269;28;20123;-84
2023/05/19 10:00:53;;;;;;;8.60;2.50;;;17.90;93.50;;;;;;4998792;28;20094;-82
2023/05/19 10:03:25;;;;;;;11.80;3.13;;;18.00;93.50;;;;;;4991201;28;20033;-81
2023/05/19 10:05:52;;;;;;;8.45;2.78;;;18.00;93.50;;;;;;5002432;28;20045;-82
2023/05/19 10:08:18;;;;;;;8.23;2.90;;;18.00;93.40;;;;;;5012840;28;20390;-80
2023/05/19 10:10:46;;;;;;;8.18;2.85;;;17.90;92.30;;;;;;5016381;28;20460;-81
2023/05/19 10:13:12;;;;;;;7.55;2.60;;;17.80;92.60;;;;;;5006855;28;20094;-83
2023/05/19 10:15:41;;;;;;;10.85;3.17;;;17.70;92.40;;;;;;5019026;28;20044;-85
2023/05/19 10:18:08;;;;;;;11.80;3.17;;;17.70;91.70;;;;;;5017353;28;20037;-84
2023/05/19 10:20:35;;;;;;;9.88;2.95;;;17.70;91.80;;;;;;5017674;28;20397;-84
2023/05/19 10:23:02;;;;;;;10.45;3.25;;;17.70;91.70;;;;;;5018121;28;20553;-84
2023/05/19 10:25:32;;;;;;;11.02;2.80;;;17.60;91.50;;;;;;5018486;28;20076;-84
2023/05/19 10:28:12;;;;;;;9.85;2.90;;;17.60;91.30;;;;;;4990888;28;20085;-85
2023/05/19 10:30:44;;;;;;;7.72;2.40;;;17.50;90.70;;;;;;5037627;28;20148;-84
2023/05/19 10:33:16;;;;;;;7.95;2.70;;;17.40;91.40;;;;;;5010577;28;20033;-84
2023/05/19 10:36:09;;;;;;;11.07;2.60;;;17.50;91.90;;;;;;5017763;28;20389;-86
2023/05/19 10:38:47;;;;;;;9.30;2.72;;;17.40;91.20;;;;;;5018175;28;20047;-86
2023/05/19 10:41:23;;;;;;;6.07;2.75;;;17.30;90.40;;;;;;5052879;28;20048;-88
2023/05/19 10:43:51;;;;;;;7.75;2.25;;;17.30;90.70;;;;;;5034013;28;20036;-87
2023/05/19 10:46:17;;;;;;;6.15;2.15;;;17.30;90.60;;;;;;5021900;28;20404;-86
2023/05/19 10:48:45;;;;;;;8.65;2.45;;;17.40;91.00;;;;;;5015238;28;20045;-87
2023/05/19 10:51:11;;;;;;;8.40;2.38;;;17.40;91.00;;;;;;5031438;28;20037;-85
2023/05/19 10:53:44;;;;;;;8.18;2.45;;;17.50;90.60;;;;;;5016789;28;20507;-84
2023/05/19 10:56:11;;;;;;;6.88;2.28;;;17.50;90.50;;;;;;4991658;28;20094;-83
2023/05/19 10:58:57;;;;;;;8.20;2.30;;;17.60;90.70;;;;;;5019462;28;20045;-86
2023/05/19 11:01:32;;;;;;;9.63;2.67;;;17.70;90.70;;;;;;5033090;28;20052;-86
2023/05/19 11:04:04;;;;;;;8.07;2.92;;;17.70;89.70;;;;;;5019943;28;20045;-85
2023/05/19 11:06:35;;;;;;;10.35;2.65;;;17.70;90.20;;;;;;5016289;28;20079;-84
2023/05/19 11:09:12;;;;;;;9.57;2.50;;;17.80;90.70;;;;;;5021605;28;20124;-85
2023/05/19 11:11:54;;;;;;;6.15;2.80;;;17.90;90.20;;;;;;5021528;28;20098;-84
2023/05/19 11:14:24;;;;;;;7.22;2.70;;;17.90;88.70;;;;;;5000542;28;20504;-85
2023/05/19 11:16:52;;;;;;;10.50;2.65;;;18.00;90.20;;;;;;5036095;28;20040;-86
2023/05/19 11:19:33;;;;;;;10.82;2.75;;;18.00;89.90;;;;;;5002385;28;20029;-85
2023/05/19 11:22:10;;;;;;;7.32;2.53;;;18.10;90.30;;;;;;5018017;28;20508;-85
2023/05/19 11:24:43;;;;;;;7.43;2.50;;;18.20;90.60;;;;;;5013252;28;20099;-85
2023/05/19 11:27:32;;;;;;;7.82;2.20;;;18.30;89.70;;;;;;5029206;28;20041;-86
2023/05/19 11:30:05;;;;;;;5.65;2.50;;;18.30;89.50;;;;;;4985785;28;20087;-85
2023/05/19 11:32:37;;;;;;;6.63;2.55;;;18.30;88.50;;;;;;5008254;28;20048;-86
2023/05/19 11:35:04;;;;;;;10.45;2.67;;;18.40;88.40;;;;;;5016544;28;20052;-85
2023/05/19 11:37:33;;;;;;;8.30;2.20;;;18.50;89.00;;;;;;5026888;28;20073;-85
2023/05/19 11:40:01;;;;;;;6.93;2.28;;;18.70;88.40;;;;;;5016358;28;20065;-84
2023/05/19 11:42:27;;;;;;;8.55;2.40;;;18.80;89.40;;;;;;5031495;28;20493;-85
2023/05/19 11:44:56;;;;;;;6.30;2.08;;;18.90;90.20;;;;;;5011170;28;20079;-85
2023/05/19 11:47:21;;;;;;;6.97;2.45;;;19.00;89.40;;;;;;5002586;28;20040;-86
2023/05/19 11:49:53;;;;;;;7.55;2.63;;;19.10;89.40;;;;;;4982095;28;20107;-86
2023/05/19 11:52:28;;;;;;;8.75;3.35;;;19.20;88.50;;;;;;5013913;28;20048;-86
2023/05/19 11:54:53;;;;;;;9.55;3.00;;;19.20;87.10;;;;;;5045738;28;20068;-86
2023/05/19 11:57:19;;;;;;;9.23;2.83;;;19.20;86.40;;;;;;5015667;28;20033;-86
2023/05/19 11:59:48;;;;;;;6.00;2.60;;;19.20;86.40;;;;;;5000575;28;20044;-87
2023/05/19 12:02:23;;;;;;;5.93;2.10;;;19.20;85.40;;;;;;5019556;28;20044;-86
2023/05/19 12:04:50;;;;;;;7.47;2.10;;;19.30;85.30;;;;;;5002186;28;20044;-85
2023/05/19 12:07:22;;;;;;;5.35;2.08;;;19.30;84.00;;;;;;5013999;28;20038;-85
2023/05/19 12:09:49;;;;;;;5.43;1.98;;;19.30;84.30;;;;;;5021334;28;20056;-86
2023/05/19 12:12:19;;;;;;;8.95;2.40;;;19.30;84.40;;;;;;5034566;28;20377;-86
2023/05/19 12:14:49;;;;;;;6.93;2.17;;;19.30;83.50;;;;;;5036229;28;20051;-86
2023/05/19 12:17:18;;;;;;;7.43;2.63;;;19.20;83.90;;;;;;5043295;28;20080;-87
2023/05/19 12:19:45;;;;;;;8.43;2.58;;;19.20;83.90;;;;;;5018532;28;20432;-86
2023/05/19 12:22:12;;;;;;;8.75;2.50;;;19.10;82.50;;;;;;5019533;28;20041;-86
2023/05/19 12:24:39;;;;;;;8.93;2.45;;;19.10;82.60;;;;;;5019414;28;20055;-85
2023/05/19 12:27:12;;;;;;;7.80;2.40;;;19.20;83.60;;;;;;4985769;28;20127;-86
2023/05/19 12:29:39;;;;;;;6.97;1.90;;;19.30;82.00;;;;;;5032882;28;20120;-88
2023/05/19 12:32:07;;;;;;;7.38;2.50;;;19.50;83.10;;;;;;5014882;28;20041;-88
2023/05/19 12:34:37;;;;;;;8.30;2.50;;;19.80;84.70;;;;;;5017563;28;20252;-87
2023/05/19 12:37:09;;;;;;;6.43;2.28;;;20.00;82.90;;;;;;5011543;28;20041;-84
2023/05/19 12:39:35;;;;;;;6.90;2.42;;;20.20;80.80;;;;;;5009506;28;20037;-87
2023/05/19 12:42:01;;;;;;;6.10;2.35;;;20.40;80.80;;;;;;5001516;28;20453;-85
2023/05/19 12:44:27;;;;;;;5.43;2.17;;;20.40;81.30;;;;;;5032470;28;20048;-82
2023/05/19 12:46:53;;;;;;;7.05;2.25;;;20.50;81.10;;;;;;5011880;28;20048;-85
2023/05/19 12:49:18;;;;;;;7.32;2.00;;;20.50;80.50;;;;;;5012378;28;20077;-84
2023/05/19 12:51:51;;;;;;;8.00;2.50;;;20.60;81.10;;;;;;4999900;28;20446;-85